createdAt,value
2018-02-09T00:01:03.151Z,84.50
2018-02-09T00:03:29.440Z,84.30
2018-02-09T00:05:56.107Z,84.50
2018-02-09T00:08:22.499Z,84.40
2018-02-09T00:10:48.848Z,83.90
2018-02-09T00:13:15.159Z,84.90
2018-02-09T00:15:41.513Z,84.90
2018-02-09T00:18:07.903Z,85.10
2018-02-09T00:20:34.947Z,84.40
2018-02-09T00:23:01.260Z,84.50
2018-02-09T00:25:27.551Z,84.50
2018-02-09T00:27:54.216Z,83.40
2018-02-09T00:30:20.649Z,85.20
2018-02-09T00:32:46.939Z,84.70
2018-02-09T00:35:13.618Z,84.40
2018-02-09T00:37:39.948Z,84.70
2018-02-09T00:40:06.242Z,84.50
2018-02-09T00:42:33.012Z,84.40
2018-02-09T00:44:59.320Z,84.60
2018-02-09T00:47:25.634Z,85.30
2018-02-09T00:49:52.043Z,85.30
2018-02-09T00:52:19.026Z,85.50
2018-02-09T00:54:45.368Z,85.50
2018-02-09T00:57:11.725Z,84.80
2018-02-09T00:59:38.112Z,85.40
2018-02-09T01:02:04.415Z,86.00
2018-02-09T01:04:30.896Z,85.70
2018-02-09T01:06:57.248Z,85.80
2018-02-09T01:09:23.652Z,85.60
2018-02-09T01:11:49.987Z,85.50
2018-02-09T01:14:16.342Z,85.90
2018-02-09T01:16:42.710Z,86.00
2018-02-09T01:19:09.124Z,86.50
2018-02-09T01:21:35.415Z,87.00
2018-02-09T01:24:01.708Z,86.50
2018-02-09T01:26:28.747Z,86.80
2018-02-09T01:28:55.530Z,86.80
2018-02-09T01:31:21.919Z,86.80
2018-02-09T01:33:48.268Z,86.60
2018-02-09T01:36:15.296Z,86.70
2018-02-09T01:38:41.679Z,86.80
2018-02-09T01:41:08.649Z,86.00
2018-02-09T01:43:34.936Z,87.50
2018-02-09T01:46:01.242Z,87.30
2018-02-09T01:48:28.307Z,87.10
2018-02-09T01:50:55.367Z,87.50
2018-02-09T01:53:21.732Z,87.50
2018-02-09T01:55:48.159Z,87.50
2018-02-09T01:58:14.503Z,87.50
2018-02-09T02:00:40.860Z,87.20
2018-02-09T02:03:08.280Z,86.80
2018-02-09T02:05:34.616Z,86.80
2018-02-09T02:08:00.916Z,86.80
2018-02-09T02:10:27.210Z,87.00
2018-02-09T02:12:53.515Z,86.50
2018-02-09T02:15:19.835Z,86.80
2018-02-09T02:17:46.179Z,87.00
2018-02-09T02:20:12.536Z,86.80
2018-02-09T02:22:39.604Z,86.90
2018-02-09T02:25:06.746Z,87.00
2018-02-09T02:27:33.088Z,86.80
2018-02-09T02:29:59.398Z,87.10
2018-02-09T02:32:25.825Z,86.90
2018-02-09T02:34:52.873Z,88.40
2018-02-09T02:37:19.147Z,88.30
2018-02-09T02:39:45.500Z,87.80
2018-02-09T02:42:11.824Z,87.20
2018-02-09T02:44:38.112Z,86.30
2018-02-09T02:47:04.522Z,87.00
2018-02-09T02:49:30.852Z,87.00
2018-02-09T02:51:57.190Z,87.10
2018-02-09T02:54:23.888Z,87.60
2018-02-09T02:56:50.184Z,87.80
2018-02-09T02:59:16.514Z,87.70
2018-02-09T03:01:42.848Z,87.70
2018-02-09T03:04:09.164Z,87.50
2018-02-09T03:06:35.473Z,87.80
2018-02-09T03:09:01.924Z,88.10
2018-02-09T03:11:29.058Z,87.70
2018-02-09T03:13:55.370Z,87.80
2018-02-09T03:16:21.987Z,87.90
2018-02-09T03:18:48.332Z,88.40
2018-02-09T03:21:14.628Z,88.70
2018-02-09T03:23:40.936Z,88.50
2018-02-09T03:26:07.295Z,88.20
2018-02-09T03:28:34.187Z,88.40
2018-02-09T03:31:00.621Z,87.80
2018-02-09T03:33:26.925Z,88.10
2018-02-09T03:35:53.277Z,88.10
2018-02-09T03:38:19.583Z,87.80
2018-02-09T03:40:45.943Z,87.70
2018-02-09T03:43:12.991Z,88.00
2018-02-09T03:45:39.319Z,88.00
2018-02-09T03:48:06.599Z,88.10
2018-02-09T03:50:33.662Z,87.80
2018-02-09T03:53:00.692Z,87.50
2018-02-09T03:55:27.734Z,87.00
2018-02-09T03:57:54.043Z,87.00
2018-02-09T04:00:20.323Z,87.60
2018-02-09T04:02:46.673Z,87.40
2018-02-09T04:05:13.803Z,87.40
2018-02-09T04:07:40.227Z,88.00
2018-02-09T04:10:07.259Z,87.80
2018-02-09T04:12:34.344Z,87.40
2018-02-09T04:15:00.694Z,87.50
2018-02-09T04:17:27.015Z,88.10
2018-02-09T04:19:53.340Z,87.40
2018-02-09T04:22:19.639Z,87.20
2018-02-09T04:24:46.680Z,86.60
2018-02-09T04:27:13.813Z,86.70
2018-02-09T04:29:40.106Z,86.60
2018-02-09T04:32:06.431Z,86.30
2018-02-09T04:34:32.808Z,86.10
2018-02-09T04:36:59.123Z,86.00
2018-02-09T04:39:25.526Z,86.80
2018-02-09T04:41:51.863Z,85.90
2018-02-09T04:44:18.221Z,85.00
2018-02-09T04:46:44.515Z,85.90
2018-02-09T04:49:10.835Z,86.10
2018-02-09T04:51:37.986Z,85.50
2018-02-09T04:54:04.408Z,85.20
2018-02-09T04:56:31.488Z,85.30
2018-02-09T04:58:57.839Z,85.10
2018-02-09T05:01:24.142Z,85.50
2018-02-09T05:03:50.458Z,85.40
2018-02-09T05:06:16.845Z,85.60
2018-02-09T05:08:43.195Z,85.50
2018-02-09T05:11:09.503Z,85.60
2018-02-09T05:13:35.857Z,85.30
2018-02-09T05:16:02.907Z,85.30
2018-02-09T05:18:29.975Z,85.10
2018-02-09T05:20:57.039Z,85.10
2018-02-09T05:23:23.403Z,84.90
2018-02-09T05:25:49.735Z,85.00
2018-02-09T05:28:16.065Z,84.90
2018-02-09T05:30:42.369Z,84.60
2018-02-09T05:33:08.667Z,85.80
2018-02-09T05:35:35.735Z,84.90
2018-02-09T05:38:02.040Z,84.70
2018-02-09T05:40:29.083Z,85.30
2018-02-09T05:42:55.415Z,85.50
2018-02-09T05:45:22.464Z,85.60
2018-02-09T05:47:49.516Z,85.20
2018-02-09T05:50:16.557Z,85.60
2018-02-09T05:52:43.623Z,85.10
2018-02-09T05:55:10.080Z,85.00
2018-02-09T05:57:37.183Z,86.00
2018-02-09T06:00:04.303Z,85.30
2018-02-09T06:02:30.680Z,85.30
2018-02-09T06:04:57.817Z,85.00
2018-02-09T06:07:24.875Z,84.80
2018-02-09T06:09:51.945Z,85.10
2018-02-09T06:12:18.263Z,84.80
2018-02-09T06:14:45.288Z,84.30
2018-02-09T06:17:12.369Z,84.80
2018-02-09T06:19:38.683Z,84.80
2018-02-09T06:22:04.969Z,85.40
2018-02-09T06:24:31.308Z,84.40
2018-02-09T06:26:57.748Z,84.80
2018-02-09T06:29:24.883Z,84.60
2018-02-09T06:31:51.219Z,84.20
2018-02-09T06:34:17.518Z,84.30
2018-02-09T06:36:43.886Z,84.00
2018-02-09T06:39:10.187Z,84.90
2018-02-09T06:41:36.483Z,84.80
2018-02-09T06:44:03.616Z,85.20
2018-02-09T06:46:29.954Z,84.90
2018-02-09T06:48:57.027Z,84.90
2018-02-09T06:51:23.391Z,84.90
2018-02-09T06:53:49.692Z,85.10
2018-02-09T06:56:16.052Z,85.20
2018-02-09T06:58:43.487Z,85.60
2018-02-09T07:01:09.782Z,85.00
2018-02-09T07:03:36.073Z,85.30
2018-02-09T07:06:02.415Z,85.70
2018-02-09T07:08:28.730Z,85.70
2018-02-09T07:10:55.042Z,85.60
2018-02-09T07:13:22.421Z,85.00
2018-02-09T07:15:48.695Z,85.40
2018-02-09T07:18:14.973Z,85.70
2018-02-09T07:20:41.287Z,85.30
2018-02-09T07:23:07.799Z,86.20
2018-02-09T07:25:34.863Z,85.30
2018-02-09T07:28:01.191Z,85.30
2018-02-09T07:30:28.347Z,85.70
2018-02-09T07:32:54.647Z,85.70
2018-02-09T07:35:20.936Z,85.10
2018-02-09T07:37:47.263Z,84.50
2018-02-09T07:40:13.626Z,84.50
2018-02-09T07:42:40.026Z,83.40
2018-02-09T07:45:06.326Z,82.60
2018-02-09T07:47:32.789Z,80.90
2018-02-09T07:49:59.075Z,80.50
2018-02-09T07:52:26.194Z,77.10
2018-02-09T07:54:52.508Z,77.10
2018-02-09T07:57:18.856Z,76.80
2018-02-09T07:59:45.156Z,78.40
2018-02-09T08:02:11.431Z,77.60
2018-02-09T08:04:37.834Z,76.60
2018-02-09T08:07:04.196Z,75.80
2018-02-09T08:09:30.635Z,75.00
2018-02-09T08:11:56.968Z,74.20
2018-02-09T08:14:23.276Z,74.70
2018-02-09T08:16:49.577Z,75.00
2018-02-09T08:19:16.724Z,74.00
2018-02-09T08:21:43.007Z,73.80
2018-02-09T08:24:09.296Z,69.50
2018-02-09T08:26:35.595Z,70.50
2018-02-09T08:29:01.900Z,72.50
2018-02-09T08:31:29.079Z,70.40
2018-02-09T08:33:55.411Z,70.50
2018-02-09T08:36:21.784Z,71.80
2018-02-09T08:38:48.113Z,71.40
2018-02-09T08:41:14.451Z,72.80
2018-02-09T08:43:40.764Z,73.40
2018-02-09T08:46:07.164Z,73.10
2018-02-09T08:48:33.586Z,73.40
2018-02-09T08:51:00.672Z,73.60
2018-02-09T08:53:26.991Z,73.50
2018-02-09T08:55:53.384Z,72.10
2018-02-09T08:58:19.732Z,72.40
2018-02-09T09:00:46.031Z,72.20
2018-02-09T09:03:12.383Z,71.60
2018-02-09T09:05:39.473Z,70.90
2018-02-09T09:08:05.823Z,70.60
2018-02-09T09:10:32.150Z,70.00
2018-02-09T09:12:59.312Z,72.70
2018-02-09T09:15:25.639Z,72.70
2018-02-09T09:17:52.010Z,73.40
2018-02-09T09:20:19.089Z,71.00
2018-02-09T09:22:46.412Z,70.90
2018-02-09T09:25:12.780Z,69.50
2018-02-09T09:27:39.107Z,67.80
2018-02-09T09:30:05.463Z,67.00
2018-02-09T09:32:33.595Z,67.50
2018-02-09T09:35:00.044Z,68.70
2018-02-09T09:37:26.317Z,66.50
2018-02-09T09:39:52.616Z,66.80
2018-02-09T09:42:19.005Z,67.00
2018-02-09T09:44:46.169Z,64.70
2018-02-09T09:47:12.467Z,64.70
2018-02-09T09:49:39.540Z,62.90
2018-02-09T09:52:06.724Z,64.50
2018-02-09T09:54:32.991Z,63.90
2018-02-09T09:56:59.280Z,61.60
2018-02-09T09:59:25.569Z,61.90
2018-02-09T10:01:51.963Z,62.40
2018-02-09T10:04:18.230Z,59.60
2018-02-09T10:06:44.743Z,58.50
2018-02-09T10:09:11.109Z,60.70
2018-02-09T10:11:38.428Z,61.20
2018-02-09T10:14:04.755Z,64.70
2018-02-09T10:16:31.128Z,64.20
2018-02-09T10:18:57.521Z,64.40
2018-02-09T10:21:23.836Z,67.50
2018-02-09T10:23:50.155Z,65.70
2018-02-09T10:26:16.515Z,64.90
2018-02-09T10:28:42.827Z,62.40
2018-02-09T10:31:09.588Z,63.90
2018-02-09T10:33:36.734Z,64.30
2018-02-09T10:36:03.811Z,64.00
2018-02-09T10:38:30.322Z,62.00
2018-02-09T10:40:58.397Z,58.20
2018-02-09T10:43:24.719Z,58.30
2018-02-09T10:45:51.255Z,57.40
2018-02-09T10:48:17.564Z,57.10
2018-02-09T10:50:43.915Z,57.20
2018-02-09T10:53:11.188Z,55.20
2018-02-09T10:55:37.636Z,56.40
2018-02-09T10:58:04.753Z,56.10
2018-02-09T11:00:37.363Z,56.20
2018-02-09T11:03:04.407Z,60.90
2018-02-09T11:05:30.720Z,60.80
2018-02-09T11:07:57.795Z,60.90
2018-02-09T11:10:30.774Z,61.70
2018-02-09T11:12:57.172Z,61.60
2018-02-09T11:15:23.506Z,61.50
2018-02-09T11:17:49.944Z,60.20
2018-02-09T11:20:16.244Z,61.00
2018-02-09T11:22:42.611Z,60.70
2018-02-09T11:25:08.908Z,60.70
2018-02-09T11:27:35.371Z,57.30
2018-02-09T11:30:01.703Z,58.70
2018-02-09T11:32:27.999Z,59.90
2018-02-09T11:34:54.397Z,62.40
2018-02-09T11:37:23.435Z,64.10
2018-02-09T11:39:50.705Z,63.80
2018-02-09T11:42:16.996Z,60.50
2018-02-09T11:44:44.147Z,56.00
2018-02-09T11:47:10.427Z,55.90
2018-02-09T11:49:36.755Z,56.90
2018-02-09T11:52:03.034Z,57.20
2018-02-09T11:54:29.408Z,55.20
2018-02-09T11:56:55.743Z,54.80
2018-02-09T11:59:22.145Z,55.80
2018-02-09T12:01:48.710Z,56.20
2018-02-09T12:04:15.007Z,56.30
2018-02-09T12:06:41.683Z,57.00
2018-02-09T12:09:08.112Z,58.70
2018-02-09T12:11:34.514Z,59.50
2018-02-09T12:14:00.844Z,57.60
2018-02-09T12:16:27.319Z,59.60
2018-02-09T12:18:53.619Z,58.50
2018-02-09T12:21:19.979Z,59.20
2018-02-09T12:23:46.335Z,58.40
2018-02-09T12:26:12.628Z,57.00
2018-02-09T12:28:38.964Z,57.00
2018-02-09T12:31:05.294Z,55.30
2018-02-09T12:33:31.939Z,54.50
2018-02-09T12:35:58.226Z,56.20
2018-02-09T12:38:24.515Z,58.70
2018-02-09T12:40:51.442Z,60.00
2018-02-09T12:43:17.928Z,59.40
2018-02-09T12:45:45.006Z,57.70
2018-02-09T12:48:11.404Z,57.30
2018-02-09T12:50:38.482Z,54.10
2018-02-09T12:53:04.787Z,53.80
2018-02-09T12:55:31.819Z,59.90
2018-02-09T12:57:58.847Z,60.00
2018-02-09T13:00:25.163Z,59.80
2018-02-09T13:02:51.476Z,60.70
2018-02-09T13:05:18.155Z,59.00
2018-02-09T13:07:45.234Z,59.30
2018-02-09T13:10:12.139Z,59.50
2018-02-09T13:12:50.770Z,58.20
2018-02-09T13:15:17.044Z,58.10
2018-02-09T13:17:43.359Z,59.60
2018-02-09T13:20:09.663Z,57.80
2018-02-09T13:22:48.903Z,58.50
2018-02-09T13:25:15.453Z,58.50
2018-02-09T13:27:41.818Z,57.60
2018-02-09T13:30:08.949Z,55.30
2018-02-09T13:32:47.635Z,56.50
2018-02-09T13:35:14.074Z,56.90
2018-02-09T13:37:40.391Z,55.60
2018-02-09T13:40:06.851Z,56.70
2018-02-09T13:42:33.917Z,58.30
2018-02-09T13:45:00.356Z,58.00
2018-02-09T13:47:27.124Z,60.00
2018-02-09T13:49:53.407Z,57.50
2018-02-09T13:52:20.494Z,52.30
2018-02-09T13:54:47.598Z,53.20
2018-02-09T13:57:14.768Z,54.00
2018-02-09T13:59:41.056Z,54.00
2018-02-09T14:02:07.363Z,54.50
2018-02-09T14:04:33.747Z,53.60
2018-02-09T14:07:00.183Z,52.60
2018-02-09T14:09:27.283Z,54.10
2018-02-09T14:11:53.656Z,53.80
2018-02-09T14:14:20.036Z,53.30
2018-02-09T14:19:19.362Z,56.20
2018-02-09T14:21:45.727Z,58.40
2018-02-09T14:24:12.064Z,59.60
2018-02-09T14:26:38.341Z,59.70
2018-02-09T14:29:04.784Z,60.00
2018-02-09T14:31:31.206Z,61.00
2018-02-09T14:33:57.600Z,61.50
2018-02-09T14:36:23.954Z,62.10
2018-02-09T14:38:50.256Z,62.30
2018-02-09T14:41:16.570Z,62.60
2018-02-09T14:43:42.863Z,61.60
2018-02-09T14:46:09.167Z,60.80
2018-02-09T14:48:35.459Z,62.20
2018-02-09T14:51:01.824Z,62.50
2018-02-09T14:53:28.867Z,63.00
2018-02-09T14:55:55.908Z,62.40
2018-02-09T14:58:22.963Z,60.30
2018-02-09T15:00:50.003Z,60.50
2018-02-09T15:03:17.114Z,60.60
2018-02-09T15:05:43.416Z,60.60
2018-02-09T15:08:09.808Z,60.70
2018-02-09T15:10:36.182Z,60.00
2018-02-09T15:13:02.543Z,61.10
2018-02-09T15:15:28.898Z,63.10
2018-02-09T15:17:55.190Z,63.30
2018-02-09T15:20:21.541Z,64.30
2018-02-09T15:22:47.867Z,64.80
2018-02-09T15:25:14.248Z,64.90
2018-02-09T15:27:41.568Z,65.60
2018-02-09T15:30:08.703Z,66.80
2018-02-09T15:32:35.068Z,66.60
2018-02-09T15:35:01.411Z,66.80
2018-02-09T15:37:28.511Z,68.00
2018-02-09T15:39:54.914Z,67.80
2018-02-09T15:42:21.295Z,68.40
2018-02-09T15:44:47.621Z,68.70
2018-02-09T15:47:13.984Z,68.60
2018-02-09T15:49:40.386Z,68.70
2018-02-09T15:52:07.534Z,69.60
2018-02-09T15:54:33.849Z,69.60
2018-02-09T15:57:00.173Z,69.70
2018-02-09T15:59:26.534Z,69.30
2018-02-09T16:01:52.852Z,69.90
2018-02-09T16:04:19.160Z,69.10
2018-02-09T16:06:45.444Z,69.90
2018-02-09T16:09:12.526Z,71.30
2018-02-09T16:11:38.824Z,69.90
2018-02-09T16:14:06.043Z,71.70
2018-02-09T16:16:32.412Z,71.90
2018-02-09T16:18:58.731Z,72.00
2018-02-09T16:21:25.659Z,72.00
2018-02-09T16:23:51.956Z,72.40
2018-02-09T16:26:18.919Z,71.20
2018-02-09T16:28:45.223Z,72.40
2018-02-09T16:31:11.618Z,73.00
2018-02-09T16:33:37.903Z,73.10
2018-02-09T16:36:04.211Z,73.30
2018-02-09T16:38:30.556Z,73.40
2018-02-09T16:40:56.884Z,72.00
2018-02-09T16:43:23.198Z,72.30
2018-02-09T16:45:49.615Z,73.80
2018-02-09T16:48:16.084Z,74.70
2018-02-09T16:50:42.445Z,73.50
2018-02-09T16:53:08.875Z,73.80
2018-02-09T16:55:35.163Z,74.00
2018-02-09T16:58:01.473Z,73.90
2018-02-09T17:00:27.815Z,73.30
2018-02-09T17:02:54.159Z,74.20
2018-02-09T17:05:20.518Z,73.90
2018-02-09T17:07:46.888Z,73.00
2018-02-09T17:10:13.273Z,73.80
2018-02-09T17:12:39.647Z,74.10
2018-02-09T17:15:06.056Z,73.90
2018-02-09T17:17:32.359Z,74.10
2018-02-09T17:19:58.723Z,74.00
2018-02-09T17:22:25.074Z,73.80
2018-02-09T17:24:51.356Z,74.20
2018-02-09T17:27:17.720Z,73.70
2018-02-09T17:29:44.023Z,73.50
2018-02-09T17:32:10.347Z,73.70
2018-02-09T17:34:36.805Z,73.70
2018-02-09T17:37:03.856Z,73.90
2018-02-09T17:39:30.952Z,73.20
2018-02-09T17:41:58.283Z,73.00
2018-02-09T17:44:24.645Z,73.30
2018-02-09T17:46:50.967Z,73.20
2018-02-09T17:49:17.372Z,73.40
2018-02-09T17:51:43.639Z,73.50
2018-02-09T17:54:10.760Z,74.40
2018-02-09T17:56:37.083Z,74.20
2018-02-09T17:59:04.172Z,74.30
2018-02-09T18:01:30.564Z,74.60
2018-02-09T18:03:56.845Z,73.20
2018-02-09T18:06:23.204Z,74.60
2018-02-09T18:08:49.524Z,73.60
2018-02-09T18:11:16.290Z,74.00
2018-02-09T18:13:43.352Z,73.60
2018-02-09T18:16:10.801Z,73.60
2018-02-09T18:18:37.127Z,73.50
2018-02-09T18:21:03.592Z,73.70
2018-02-09T18:23:30.085Z,73.70
2018-02-09T18:25:57.160Z,74.30
2018-02-09T18:28:24.964Z,73.20
2018-02-09T18:30:51.266Z,74.50
2018-02-09T18:33:18.135Z,74.00
2018-02-09T18:35:44.653Z,74.00
2018-02-09T18:38:11.005Z,73.60
2018-02-09T18:40:37.595Z,73.80
2018-02-09T18:43:03.942Z,73.90
2018-02-09T18:45:30.295Z,73.30
2018-02-09T18:47:56.645Z,73.50
2018-02-09T18:50:23.083Z,74.00
2018-02-09T18:52:49.479Z,74.00
2018-02-09T18:55:15.937Z,73.90
2018-02-09T18:57:43.871Z,74.10
2018-02-09T19:00:10.215Z,74.40
2018-02-09T19:02:37.267Z,74.30
2018-02-09T19:05:03.579Z,72.80
2018-02-09T19:07:29.912Z,74.70
2018-02-09T19:09:56.987Z,73.80
2018-02-09T19:12:23.518Z,73.80
2018-02-09T19:14:49.870Z,72.80
2018-02-09T19:17:16.252Z,74.00
2018-02-09T19:19:43.931Z,74.40
2018-02-09T19:22:10.293Z,74.40
2018-02-09T19:24:36.677Z,74.10
2018-02-09T19:27:03.464Z,74.00
2018-02-09T19:29:29.885Z,72.40
2018-02-09T19:31:56.196Z,73.50
2018-02-09T19:34:23.295Z,73.80
2018-02-09T19:36:50.083Z,73.70
2018-02-09T19:39:18.144Z,73.60
2018-02-09T19:41:44.548Z,73.70
2018-02-09T19:44:10.861Z,74.30
2018-02-09T19:46:37.194Z,74.30
2018-02-09T19:49:03.598Z,74.50
2018-02-09T19:51:29.944Z,74.60
2018-02-09T19:53:56.283Z,75.00
2018-02-09T19:56:22.616Z,75.30
2018-02-09T19:58:49.072Z,76.40
2018-02-09T20:01:16.366Z,76.30
2018-02-09T20:03:43.992Z,76.50
2018-02-09T20:06:11.046Z,75.60
2018-02-09T20:08:38.133Z,77.10
2018-02-09T20:11:06.260Z,76.10
2018-02-09T20:13:33.455Z,77.20
2018-02-09T20:16:00.084Z,77.40
2018-02-09T20:18:26.475Z,77.00
2018-02-09T20:20:52.832Z,77.40
2018-02-09T20:23:20.005Z,77.30
2018-02-09T20:25:47.244Z,77.00
2018-02-09T20:28:13.644Z,77.50
2018-02-09T20:30:39.951Z,77.40
2018-02-09T20:33:06.275Z,75.70
2018-02-09T20:35:32.584Z,77.30
2018-02-09T20:38:00.087Z,76.50
2018-02-09T20:40:26.736Z,76.30
2018-02-09T20:42:53.039Z,78.30
2018-02-09T20:45:19.458Z,77.00
2018-02-09T20:47:45.802Z,77.80
2018-02-09T20:50:12.159Z,77.50
2018-02-09T20:52:38.540Z,77.50
2018-02-09T20:55:04.981Z,77.60
2018-02-09T20:57:31.287Z,77.70
2018-02-09T20:59:58.393Z,78.00
2018-02-09T21:02:25.633Z,77.80
2018-02-09T21:04:52.906Z,78.00
2018-02-09T21:07:19.270Z,77.60
2018-02-09T21:09:45.649Z,77.60
2018-02-09T21:12:12.027Z,78.10
2018-02-09T21:14:38.423Z,78.80
2018-02-09T21:17:04.710Z,78.80
2018-02-09T21:19:31.748Z,78.40
2018-02-09T21:21:58.062Z,78.10
2018-02-09T21:24:24.558Z,78.60
2018-02-09T21:26:50.882Z,78.70
2018-02-09T21:29:17.183Z,78.30
2018-02-09T21:31:44.392Z,78.00
2018-02-09T21:34:10.775Z,77.50
2018-02-09T21:36:37.818Z,78.80
2018-02-09T21:39:04.320Z,79.00
2018-02-09T21:41:30.731Z,79.20
2018-02-09T21:43:57.088Z,79.00
2018-02-09T21:46:23.473Z,79.00
2018-02-09T21:48:50.032Z,78.90
2018-02-09T21:51:16.397Z,80.00
2018-02-09T21:53:43.508Z,79.50
2018-02-09T21:56:09.840Z,79.10
2018-02-09T21:58:36.191Z,79.80
2018-02-09T22:01:02.530Z,79.90
2018-02-09T22:03:28.872Z,79.60
2018-02-09T22:05:55.260Z,79.80
2018-02-09T22:08:21.651Z,79.30
2018-02-09T22:10:49.808Z,79.10
2018-02-09T22:13:16.918Z,79.20
2018-02-09T22:15:44.305Z,79.10
2018-02-09T22:18:10.662Z,79.60
2018-02-09T22:20:36.942Z,79.70
2018-02-09T22:23:03.367Z,79.50
2018-02-09T22:25:29.733Z,80.00
2018-02-09T22:27:56.052Z,81.00
2018-02-09T22:30:22.363Z,80.20
2018-02-09T22:32:48.648Z,80.10
2018-02-09T22:35:15.691Z,80.10
2018-02-09T22:37:42.842Z,80.50
2018-02-09T22:40:09.219Z,80.50
2018-02-09T22:42:35.523Z,79.80
2018-02-09T22:45:01.856Z,80.10
2018-02-09T22:47:28.163Z,80.60
2018-02-09T22:49:54.540Z,80.30
2018-02-09T22:52:20.903Z,80.30
2018-02-09T22:54:47.264Z,80.80
2018-02-09T22:57:13.564Z,79.00
2018-02-09T22:59:40.302Z,80.40
2018-02-09T23:02:06.659Z,80.30
2018-02-09T23:04:33.707Z,80.40
2018-02-09T23:07:00.177Z,80.40
2018-02-09T23:09:26.539Z,80.10
2018-02-09T23:11:52.920Z,79.90
2018-02-09T23:14:20.020Z,79.90
2018-02-09T23:16:46.351Z,79.90
2018-02-09T23:19:13.416Z,79.90
2018-02-09T23:21:41.278Z,79.80
2018-02-09T23:24:07.578Z,79.80
2018-02-09T23:26:34.001Z,80.30
2018-02-09T23:29:00.479Z,81.00
2018-02-09T23:31:26.863Z,80.90
2018-02-09T23:33:54.209Z,80.90
2018-02-09T23:36:20.664Z,81.30
2018-02-09T23:38:46.966Z,80.80
2018-02-09T23:41:14.002Z,80.90
2018-02-09T23:43:40.271Z,80.90
2018-02-09T23:46:06.600Z,81.20
2018-02-09T23:48:34.105Z,80.90
2018-02-09T23:51:00.708Z,80.70
2018-02-09T23:53:27.746Z,80.90
2018-02-09T23:55:54.115Z,80.90
2018-02-09T23:58:21.489Z,80.10
